createdAt,value
2023-04-10T00:00:14.534Z,80.92
2023-04-10T00:01:14.526Z,80.82
2023-04-10T00:02:14.615Z,80.71
2023-04-10T00:03:14.781Z,80.61
2023-04-10T00:04:14.696Z,80.61
2023-04-10T00:05:14.692Z,80.61
2023-04-10T00:06:14.466Z,80.71
2023-04-10T00:07:14.452Z,80.71
2023-04-10T00:08:14.462Z,80.71
2023-04-10T00:09:14.435Z,80.65
2023-04-10T00:10:14.445Z,80.65
2023-04-10T00:11:14.413Z,80.65
2023-04-10T00:12:14.395Z,80.75
2023-04-10T00:13:14.380Z,80.85
2023-04-10T00:14:14.377Z,80.99
2023-04-10T00:15:14.365Z,81.10
2023-04-10T00:16:14.389Z,81.20
2023-04-10T00:17:14.348Z,81.30
2023-04-10T00:18:14.331Z,81.40
2023-04-10T00:19:14.316Z,81.51
2023-04-10T00:20:14.298Z,81.51
2023-04-10T00:21:14.292Z,81.40
2023-04-10T00:22:14.279Z,81.30
2023-04-10T00:23:14.269Z,80.89
2023-04-10T00:24:14.270Z,80.54
2023-04-10T00:25:14.247Z,80.45
2023-04-10T00:26:14.254Z,80.24
2023-04-10T00:27:14.231Z,80.13
2023-04-10T00:28:14.206Z,80.03
2023-04-10T00:29:14.205Z,79.93
2023-04-10T00:30:14.197Z,80.03
2023-04-10T00:31:14.177Z,80.03
2023-04-10T00:32:14.221Z,80.03
2023-04-10T00:33:14.168Z,80.03
2023-04-10T00:34:14.233Z,80.13
2023-04-10T00:35:14.131Z,80.24
2023-04-10T00:36:14.167Z,80.34
2023-04-10T00:37:14.109Z,80.34
2023-04-10T00:38:14.094Z,80.34
2023-04-10T00:39:14.086Z,80.48
2023-04-10T00:40:14.079Z,80.58
2023-04-10T00:41:14.062Z,80.58
2023-04-10T00:42:14.072Z,80.58
2023-04-10T00:43:14.034Z,80.58
2023-04-10T00:44:14.027Z,80.58
2023-04-10T00:45:14.012Z,80.68
2023-04-10T00:46:14.051Z,80.68
2023-04-10T00:47:14.028Z,80.68
2023-04-10T00:48:13.976Z,80.68
2023-04-10T00:49:13.968Z,80.68
2023-04-10T00:50:13.954Z,80.79
2023-04-10T00:51:13.945Z,80.79
2023-04-10T00:52:13.938Z,80.79
2023-04-10T00:53:13.915Z,80.79
2023-04-10T00:54:13.913Z,80.79
2023-04-10T00:55:13.894Z,80.79
2023-04-10T00:56:13.888Z,80.79
2023-04-10T00:57:13.874Z,80.79
2023-04-10T00:58:13.903Z,80.79
2023-04-10T00:59:13.844Z,80.68
2023-04-10T01:00:13.853Z,80.79
2023-04-10T01:01:13.870Z,80.89
2023-04-10T01:02:13.890Z,80.89
2023-04-10T01:03:13.975Z,80.93
2023-04-10T01:04:13.948Z,81.03
2023-04-10T01:05:13.778Z,81.03
2023-04-10T01:06:13.772Z,81.03
2023-04-10T01:07:13.759Z,81.14
2023-04-10T01:08:13.759Z,81.14
2023-04-10T01:09:13.734Z,81.24
2023-04-10T01:10:13.746Z,81.34
2023-04-10T01:11:13.712Z,81.34
2023-04-10T01:12:13.695Z,81.34
2023-04-10T01:13:13.681Z,81.34
2023-04-10T01:14:13.697Z,81.24
2023-04-10T01:15:13.660Z,81.24
2023-04-10T01:16:13.646Z,81.24
2023-04-10T01:17:13.638Z,81.24
2023-04-10T01:18:13.630Z,81.24
2023-04-10T01:19:13.611Z,81.14
2023-04-10T01:20:13.635Z,81.14
2023-04-10T01:21:13.595Z,81.14
2023-04-10T01:22:13.600Z,81.14
2023-04-10T01:23:13.564Z,81.14
2023-04-10T01:24:13.551Z,81.24
2023-04-10T01:25:13.594Z,81.24
2023-04-10T01:26:13.531Z,81.28
2023-04-10T01:27:13.518Z,81.38
2023-04-10T01:28:13.508Z,81.38
2023-04-10T01:29:13.511Z,81.48
2023-04-10T01:30:13.506Z,81.48
2023-04-10T01:31:13.560Z,81.48
2023-04-10T01:32:13.460Z,81.58
2023-04-10T01:33:13.448Z,81.72
2023-04-10T01:34:13.456Z,81.93
2023-04-10T01:35:13.438Z,82.14
2023-04-10T01:36:13.418Z,82.34
2023-04-10T01:37:13.407Z,82.55
2023-04-10T01:38:13.389Z,82.69
2023-04-10T01:39:13.392Z,82.86
2023-04-10T01:40:13.412Z,83.00
2023-04-10T01:41:13.355Z,83.06
2023-04-10T01:42:13.343Z,83.10
2023-04-10T01:43:13.334Z,83.20
2023-04-10T01:44:13.321Z,83.30
2023-04-10T01:45:13.315Z,83.41
2023-04-10T01:46:13.325Z,83.41
2023-04-10T01:47:13.293Z,83.51
2023-04-10T01:48:13.276Z,83.51
2023-04-10T01:49:13.264Z,83.61
2023-04-10T01:50:13.253Z,83.61
2023-04-10T01:51:13.237Z,83.61
2023-04-10T01:52:13.228Z,83.72
2023-04-10T01:53:13.232Z,83.72
2023-04-10T01:54:13.205Z,83.72
2023-04-10T01:55:13.198Z,83.72
2023-04-10T01:56:13.181Z,83.72
2023-04-10T01:57:13.167Z,83.72
2023-04-10T01:58:13.156Z,83.72
2023-04-10T01:59:13.145Z,83.72
2023-04-10T02:00:13.193Z,83.72
2023-04-10T02:01:22.405Z,83.72
2023-04-10T02:02:13.197Z,83.72
2023-04-10T02:03:13.387Z,83.72
2023-04-10T02:04:13.165Z,83.82
2023-04-10T02:05:13.090Z,83.92
2023-04-10T02:06:13.068Z,83.96
2023-04-10T02:07:13.066Z,84.06
2023-04-10T02:08:13.051Z,84.16
2023-04-10T02:09:13.033Z,84.16
2023-04-10T02:10:13.026Z,84.27
2023-04-10T02:11:13.017Z,84.27
2023-04-10T02:12:13.007Z,84.27
2023-04-10T02:13:12.992Z,84.27
2023-04-10T02:14:12.976Z,84.27
2023-04-10T02:15:12.963Z,84.27
2023-04-10T02:16:13.006Z,84.27
2023-04-10T02:17:12.943Z,84.27
2023-04-10T02:18:12.959Z,84.27
2023-04-10T02:19:12.919Z,84.37
2023-04-10T02:20:12.969Z,84.37
2023-04-10T02:21:12.905Z,84.47
2023-04-10T02:22:12.885Z,84.58
2023-04-10T02:23:12.878Z,84.68
2023-04-10T02:24:12.886Z,84.79
2023-04-10T02:25:12.877Z,84.88
2023-04-10T02:26:12.842Z,84.99
2023-04-10T02:27:12.830Z,84.99
2023-04-10T02:28:12.819Z,85.13
2023-04-10T02:29:12.807Z,85.13
2023-04-10T02:30:12.797Z,85.13
2023-04-10T02:31:12.791Z,85.13
2023-04-10T02:32:12.778Z,85.24
2023-04-10T02:33:12.766Z,85.13
2023-04-10T02:34:12.894Z,85.13
2023-04-10T02:35:12.736Z,85.13
2023-04-10T02:36:12.816Z,85.13
2023-04-10T02:37:12.719Z,85.13
2023-04-10T02:38:13.319Z,85.13
2023-04-10T02:39:12.696Z,85.09
2023-04-10T02:40:12.685Z,85.13
2023-04-10T02:41:12.672Z,85.09
2023-04-10T02:42:12.661Z,85.13
2023-04-10T02:43:12.650Z,85.09
2023-04-10T02:44:12.641Z,85.09
2023-04-10T02:45:12.670Z,85.09
2023-04-10T02:46:12.650Z,85.09
2023-04-10T02:47:12.611Z,85.24
2023-04-10T02:48:12.598Z,85.24
2023-04-10T02:49:12.580Z,85.24
2023-04-10T02:50:12.606Z,85.33
2023-04-10T02:51:12.559Z,85.44
2023-04-10T02:52:12.560Z,85.54
2023-04-10T02:53:12.540Z,85.65
2023-04-10T02:54:12.524Z,85.75
2023-04-10T02:55:12.527Z,85.85
2023-04-10T02:56:12.499Z,85.89
2023-04-10T02:57:12.493Z,85.99
2023-04-10T02:58:14.873Z,85.99
2023-04-10T02:59:12.469Z,86.20
2023-04-10T03:00:12.462Z,86.20
2023-04-10T03:01:12.462Z,86.20
2023-04-10T03:02:12.595Z,86.30
2023-04-10T03:03:12.509Z,86.30
2023-04-10T03:04:12.506Z,86.41
2023-04-10T03:05:12.400Z,86.30
2023-04-10T03:06:12.422Z,86.30
2023-04-10T03:07:12.396Z,86.41
2023-04-10T03:08:12.373Z,86.41
2023-04-10T03:09:12.382Z,86.51
2023-04-10T03:10:12.370Z,86.51
2023-04-10T03:11:12.341Z,86.61
2023-04-10T03:12:12.330Z,86.71
2023-04-10T03:13:12.321Z,86.82
2023-04-10T03:14:12.298Z,86.82
2023-04-10T03:15:12.299Z,86.92
2023-04-10T03:16:12.287Z,87.03
2023-04-10T03:17:12.300Z,87.03
2023-04-10T03:18:12.362Z,87.03
2023-04-10T03:19:12.251Z,87.13
2023-04-10T03:20:12.249Z,87.13
2023-04-10T03:21:12.236Z,87.13
2023-04-10T03:22:12.240Z,87.13
2023-04-10T03:23:12.208Z,87.23
2023-04-10T03:24:12.197Z,87.23
2023-04-10T03:25:12.180Z,87.23
2023-04-10T03:26:12.174Z,87.23
2023-04-10T03:27:12.168Z,87.23
2023-04-10T03:28:12.146Z,87.23
2023-04-10T03:29:14.136Z,87.27
2023-04-10T03:30:12.132Z,87.37
2023-04-10T03:31:12.133Z,87.34
2023-04-10T03:32:12.104Z,87.48
2023-04-10T03:33:12.096Z,87.43
2023-04-10T03:34:12.082Z,87.58
2023-04-10T03:35:12.075Z,87.58
2023-04-10T03:36:12.098Z,87.54
2023-04-10T03:37:12.049Z,87.54
2023-04-10T03:38:12.061Z,87.43
2023-04-10T03:39:12.029Z,87.34
2023-04-10T03:40:12.020Z,87.43
2023-04-10T03:41:12.004Z,87.43
2023-04-10T03:42:11.994Z,87.43
2023-04-10T03:43:11.992Z,87.43
2023-04-10T03:44:11.967Z,87.48
2023-04-10T03:45:11.964Z,87.48
2023-04-10T03:46:11.958Z,87.48
2023-04-10T03:47:11.964Z,87.48
2023-04-10T03:48:11.940Z,87.48
2023-04-10T03:49:11.918Z,87.58
2023-04-10T03:50:11.911Z,87.58
2023-04-10T03:51:11.893Z,87.58
2023-04-10T03:52:11.884Z,87.58
2023-04-10T03:53:11.876Z,87.68
2023-04-10T03:54:11.893Z,87.68
2023-04-10T03:55:11.858Z,87.79
2023-04-10T03:56:11.842Z,87.79
2023-04-10T03:57:13.825Z,87.79
2023-04-10T03:58:11.813Z,87.89
2023-04-10T03:59:11.801Z,87.89
2023-04-10T04:00:11.796Z,87.89
2023-04-10T04:01:11.787Z,87.89
2023-04-10T04:02:11.963Z,87.99
2023-04-10T04:03:12.081Z,87.99
2023-04-10T04:04:11.915Z,87.99
2023-04-10T04:05:11.753Z,87.99
2023-04-10T04:06:11.728Z,87.99
2023-04-10T04:07:11.729Z,87.99
2023-04-10T04:08:11.710Z,88.09
2023-04-10T04:09:11.692Z,88.09
2023-04-10T04:10:11.705Z,88.20
2023-04-10T04:11:11.672Z,88.20
2023-04-10T04:12:11.658Z,88.30
2023-04-10T04:13:11.651Z,88.30
2023-04-10T04:14:13.636Z,88.30
2023-04-10T04:15:11.637Z,88.40
2023-04-10T04:16:11.655Z,88.40
2023-04-10T04:17:11.605Z,88.40
2023-04-10T04:18:11.591Z,88.40
2023-04-10T04:19:13.678Z,88.40
2023-04-10T04:20:13.597Z,88.40
2023-04-10T04:21:11.570Z,88.30
2023-04-10T04:22:11.550Z,88.30
2023-04-10T04:23:13.543Z,88.20
2023-04-10T04:24:13.530Z,88.09
2023-04-10T04:25:13.557Z,87.99
2023-04-10T04:26:11.515Z,87.99
2023-04-10T04:27:11.493Z,87.99
2023-04-10T04:28:11.481Z,87.99
2023-04-10T04:29:13.472Z,87.89
2023-04-10T04:30:11.457Z,87.89
2023-04-10T04:31:11.445Z,87.89
2023-04-10T04:32:11.522Z,87.89
2023-04-10T04:33:11.436Z,87.89
2023-04-10T04:34:11.425Z,87.99
2023-04-10T04:35:11.410Z,87.99
2023-04-10T04:36:11.424Z,87.99
2023-04-10T04:37:11.379Z,87.99
2023-04-10T04:38:11.374Z,88.09
2023-04-10T04:39:11.357Z,88.09
2023-04-10T04:40:11.360Z,88.09
2023-04-10T04:41:11.375Z,88.20
2023-04-10T04:42:11.331Z,88.24
2023-04-10T04:43:11.315Z,88.34
2023-04-10T04:44:11.306Z,88.34
2023-04-10T04:45:11.300Z,88.45
2023-04-10T04:46:11.340Z,88.40
2023-04-10T04:47:11.281Z,88.51
2023-04-10T04:48:11.267Z,88.51
2023-04-10T04:49:11.249Z,88.51
2023-04-10T04:50:11.242Z,88.47
2023-04-10T04:51:11.240Z,88.36
2023-04-10T04:52:11.216Z,88.26
2023-04-10T04:53:11.210Z,88.22
2023-04-10T04:54:11.196Z,88.01
2023-04-10T04:55:11.184Z,87.91
2023-04-10T04:56:11.174Z,87.60
2023-04-10T04:57:11.191Z,87.40
2023-04-10T04:58:11.146Z,87.19
2023-04-10T04:59:11.139Z,86.84
2023-04-10T05:00:11.127Z,86.63
2023-04-10T05:01:11.188Z,86.43
2023-04-10T05:02:11.185Z,86.23
2023-04-10T05:03:11.187Z,85.88
2023-04-10T05:04:11.289Z,85.67
2023-04-10T05:05:11.077Z,85.43
2023-04-10T05:06:11.067Z,85.01
2023-04-10T05:07:11.056Z,84.56
2023-04-10T05:08:11.036Z,84.11
2023-04-10T05:09:11.030Z,83.60
2023-04-10T05:10:11.014Z,83.29
2023-04-10T05:11:11.009Z,82.84
2023-04-10T05:12:10.997Z,82.53
2023-04-10T05:13:11.113Z,82.02
2023-04-10T05:14:10.973Z,81.61
2023-04-10T05:15:10.963Z,81.51
2023-04-10T05:16:11.018Z,81.40
2023-04-10T05:17:10.937Z,81.37
2023-04-10T05:18:10.991Z,81.16
2023-04-10T05:19:10.924Z,80.92
2023-04-10T05:20:10.906Z,80.68
2023-04-10T05:21:10.889Z,80.02
2023-04-10T05:22:10.899Z,79.27
2023-04-10T05:23:10.880Z,78.72
2023-04-10T05:24:10.858Z,77.97
2023-04-10T05:25:10.851Z,77.11
2023-04-10T05:26:10.840Z,76.06
2023-04-10T05:27:10.819Z,75.44
2023-04-10T05:28:10.809Z,74.69
2023-04-10T05:29:10.825Z,74.08
2023-04-10T05:30:10.797Z,73.33
2023-04-10T05:31:10.803Z,72.88
2023-04-10T05:32:10.758Z,72.38
2023-04-10T05:33:10.755Z,71.93
2023-04-10T05:34:10.734Z,71.32
2023-04-10T05:35:10.728Z,70.78
2023-04-10T05:36:10.750Z,70.37
2023-04-10T05:37:10.706Z,70.03
2023-04-10T05:38:10.696Z,69.72
2023-04-10T05:39:10.690Z,69.28
2023-04-10T05:40:10.668Z,68.95
2023-04-10T05:41:10.670Z,68.40
2023-04-10T05:42:10.644Z,67.79
2023-04-10T05:43:10.636Z,67.26
2023-04-10T05:44:10.625Z,66.82
2023-04-10T05:45:10.638Z,66.30
2023-04-10T05:46:10.613Z,65.97
2023-04-10T05:47:10.596Z,65.53
2023-04-10T05:48:10.584Z,65.13
2023-04-10T05:49:10.582Z,64.79
2023-04-10T05:50:10.565Z,64.36
2023-04-10T05:51:10.557Z,63.95
2023-04-10T05:52:10.558Z,63.44
2023-04-10T05:53:10.525Z,63.21
2023-04-10T05:54:10.514Z,63.21
2023-04-10T05:55:10.501Z,62.67
2023-04-10T05:56:10.503Z,62.57
2023-04-10T05:57:10.496Z,62.17
2023-04-10T05:58:10.481Z,62.03
2023-04-10T05:59:10.457Z,61.52
2023-04-10T06:00:10.451Z,61.40
2023-04-10T06:01:10.460Z,61.09
2023-04-10T06:02:10.492Z,60.99
2023-04-10T06:03:10.473Z,60.86
2023-04-10T06:04:10.573Z,60.13
2023-04-10T06:05:10.408Z,59.41
2023-04-10T06:06:10.384Z,59.41
2023-04-10T06:07:10.366Z,59.21
2023-04-10T06:08:10.355Z,59.52
2023-04-10T06:09:10.351Z,59.41
2023-04-10T06:10:10.332Z,59.55
2023-04-10T06:11:10.319Z,60.79
2023-04-10T06:12:10.308Z,61.05
2023-04-10T06:13:11.316Z,61.63
2023-04-10T06:14:10.285Z,60.96
2023-04-10T06:15:10.277Z,60.22
2023-04-10T06:16:10.295Z,59.49
2023-04-10T06:17:10.284Z,59.16
2023-04-10T06:18:10.238Z,58.52
2023-04-10T06:19:10.230Z,57.99
2023-04-10T06:20:10.232Z,57.39
2023-04-10T06:21:10.206Z,56.98
2023-04-10T06:22:10.194Z,57.69
2023-04-10T06:23:10.181Z,56.93
2023-04-10T06:24:11.669Z,56.50
2023-04-10T06:25:10.165Z,55.76
2023-04-10T06:26:10.154Z,55.34
2023-04-10T06:27:10.137Z,54.80
2023-04-10T06:28:10.129Z,54.27
2023-04-10T06:29:10.353Z,53.97
2023-04-10T06:30:10.112Z,53.97
2023-04-10T06:31:10.145Z,53.74
2023-04-10T06:32:10.088Z,53.54
2023-04-10T06:33:10.096Z,53.54
2023-04-10T06:34:10.061Z,53.47
2023-04-10T06:35:10.052Z,54.50
2023-04-10T06:36:10.106Z,54.60
2023-04-10T06:37:10.028Z,54.20
2023-04-10T06:38:10.029Z,54.18
2023-04-10T06:39:10.008Z,54.07
2023-04-10T06:40:10.002Z,54.30
2023-04-10T06:41:09.984Z,54.52
2023-04-10T06:42:10.100Z,55.16
2023-04-10T06:43:09.973Z,56.32
2023-04-10T06:44:09.956Z,56.95
2023-04-10T06:45:09.948Z,57.46
2023-04-10T06:46:09.922Z,57.15
2023-04-10T06:47:09.989Z,57.05
2023-04-10T06:48:09.911Z,57.23
2023-04-10T06:49:09.915Z,57.13
2023-04-10T06:50:09.879Z,57.33
2023-04-10T06:51:09.880Z,57.20
2023-04-10T06:52:09.873Z,56.67
2023-04-10T06:53:09.844Z,55.51
2023-04-10T06:54:09.830Z,55.08
2023-04-10T06:55:09.819Z,54.55
2023-04-10T06:56:09.817Z,53.74
2023-04-10T06:57:09.804Z,53.82
2023-04-10T06:58:09.787Z,53.85
2023-04-10T06:59:09.794Z,54.15
2023-04-10T07:00:09.773Z,54.02
2023-04-10T07:01:09.798Z,54.22
2023-04-10T07:02:09.821Z,53.69
2023-04-10T07:03:09.790Z,52.97
2023-04-10T07:04:09.835Z,52.34
2023-04-10T07:05:09.741Z,52.23
2023-04-10T07:06:09.700Z,52.23
2023-04-10T07:07:09.738Z,51.81
2023-04-10T07:08:09.679Z,51.76
2023-04-10T07:09:09.670Z,50.73
2023-04-10T07:10:09.661Z,50.31
2023-04-10T07:11:09.640Z,49.98
2023-04-10T07:12:09.631Z,49.56
2023-04-10T07:13:09.617Z,49.68
2023-04-10T07:14:09.609Z,49.91
2023-04-10T07:15:09.594Z,50.63
2023-04-10T07:16:09.617Z,50.93
2023-04-10T07:17:09.573Z,51.11
2023-04-10T07:18:09.674Z,50.71
2023-04-10T07:19:09.552Z,50.31
2023-04-10T07:20:09.541Z,50.48
2023-04-10T07:21:09.553Z,49.66
2023-04-10T07:22:09.521Z,50.28
2023-04-10T07:23:09.508Z,49.96
2023-04-10T07:24:09.504Z,49.71
2023-04-10T07:25:09.488Z,53.11
2023-04-10T07:26:09.479Z,55.51
2023-04-10T07:27:09.466Z,56.34
2023-04-10T07:28:09.450Z,56.19
2023-04-10T07:29:09.440Z,54.50
2023-04-10T07:30:10.790Z,54.15
2023-04-10T07:31:09.416Z,52.99
2023-04-10T07:32:09.509Z,51.61
2023-04-10T07:33:09.642Z,50.56
2023-04-10T07:34:09.405Z,49.66
2023-04-10T07:35:09.385Z,49.84
2023-04-10T07:36:09.406Z,49.31
2023-04-10T07:37:09.376Z,48.77
2023-04-10T07:38:09.354Z,47.92
2023-04-10T07:39:09.328Z,47.27
2023-04-10T07:40:09.315Z,46.36
2023-04-10T07:41:09.303Z,46.03
2023-04-10T07:42:09.295Z,45.83
2023-04-10T07:43:09.291Z,45.91
2023-04-10T07:44:09.270Z,45.30
2023-04-10T07:45:09.267Z,44.87
2023-04-10T07:46:09.315Z,44.95
2023-04-10T07:47:09.268Z,44.23
2023-04-10T07:48:09.227Z,43.84
2023-04-10T07:49:09.228Z,43.52
2023-04-10T07:50:09.231Z,43.52
2023-04-10T07:51:09.248Z,43.74
2023-04-10T07:52:09.197Z,43.52
2023-04-10T07:53:09.193Z,43.32
2023-04-10T07:54:09.162Z,43.62
2023-04-10T07:55:09.154Z,43.42
2023-04-10T07:56:09.142Z,43.42
2023-04-10T07:57:09.125Z,43.42
2023-04-10T07:58:09.114Z,43.54
2023-04-10T07:59:09.126Z,43.52
2023-04-10T08:00:09.090Z,43.52
2023-04-10T08:01:09.095Z,43.32
2023-04-10T08:02:09.212Z,42.72
2023-04-10T08:03:09.302Z,43.12
2023-04-10T08:04:09.297Z,43.42
2023-04-10T08:05:09.087Z,43.22
2023-04-10T08:06:09.033Z,42.90
2023-04-10T08:07:09.018Z,42.80
2023-04-10T08:08:09.006Z,42.58
2023-04-10T08:09:09.038Z,42.48
2023-04-10T08:10:08.985Z,42.26
2023-04-10T08:11:08.964Z,42.05
2023-04-10T08:12:08.961Z,42.05
2023-04-10T08:13:08.952Z,42.05
2023-04-10T08:14:08.934Z,41.65
2023-04-10T08:15:08.928Z,41.85
2023-04-10T08:16:08.920Z,43.04
2023-04-10T08:17:08.997Z,44.62
2023-04-10T08:18:08.886Z,45.31
2023-04-10T08:19:08.880Z,45.19
2023-04-10T08:20:08.867Z,44.87
2023-04-10T08:21:08.857Z,44.11
2023-04-10T08:22:08.846Z,43.06
2023-04-10T08:24:08.828Z,41.59
2023-04-10T08:25:08.851Z,40.97
2023-04-10T08:26:08.798Z,41.47
2023-04-10T08:27:08.794Z,43.90
2023-04-10T08:28:08.778Z,45.34
2023-04-10T08:29:08.771Z,45.56
2023-04-10T08:30:08.750Z,46.16
2023-04-10T08:31:08.770Z,45.42
2023-04-10T08:32:08.736Z,45.12
2023-04-10T08:33:08.726Z,45.56
2023-04-10T08:34:08.710Z,46.94
2023-04-10T08:35:08.710Z,48.09
2023-04-10T08:36:08.708Z,48.93
2023-04-10T08:37:10.455Z,49.41
2023-04-10T08:38:13.954Z,48.12
2023-04-10T08:39:08.660Z,46.58
2023-04-10T08:40:08.649Z,47.10
2023-04-10T08:41:08.670Z,46.13
2023-04-10T08:42:08.625Z,45.34
2023-04-10T08:43:08.621Z,44.89
2023-04-10T08:44:08.620Z,44.36
2023-04-10T08:45:08.598Z,43.20
2023-04-10T08:46:08.607Z,42.56
2023-04-10T08:47:08.568Z,41.87
2023-04-10T08:48:08.559Z,42.37
2023-04-10T08:49:08.545Z,43.02
2023-04-10T08:50:08.550Z,43.12
2023-04-10T08:51:10.779Z,43.04
2023-04-10T08:52:08.520Z,44.28
2023-04-10T08:53:08.505Z,45.23
2023-04-10T08:54:08.507Z,45.53
2023-04-10T08:55:08.495Z,45.34
2023-04-10T08:56:08.468Z,44.72
2023-04-10T08:57:09.913Z,44.37
2023-04-10T08:58:08.457Z,43.62
2023-04-10T08:59:08.436Z,42.37
2023-04-10T09:00:22.138Z,41.04
2023-04-10T09:01:08.420Z,41.21
2023-04-10T09:02:08.463Z,40.18
2023-04-10T09:03:08.527Z,39.87
2023-04-10T09:04:08.494Z,39.47
2023-04-10T09:05:08.369Z,39.27
2023-04-10T09:06:08.357Z,40.22
2023-04-10T09:07:08.344Z,40.62
2023-04-10T09:08:08.339Z,40.96
2023-04-10T09:09:08.331Z,41.57
2023-04-10T09:10:08.314Z,41.59
2023-04-10T09:11:08.305Z,44.02
2023-04-10T09:12:08.302Z,45.28
2023-04-10T09:13:08.310Z,45.56
2023-04-10T09:14:08.270Z,44.48
2023-04-10T09:15:08.262Z,43.12
2023-04-10T09:16:08.300Z,41.97
2023-04-10T09:17:08.243Z,41.15
2023-04-10T09:18:08.247Z,41.33
2023-04-10T09:19:08.220Z,39.49
2023-04-10T09:20:08.207Z,38.25
2023-04-10T09:21:08.206Z,37.52
2023-04-10T09:22:08.187Z,37.68
2023-04-10T09:23:08.177Z,36.97
2023-04-10T09:24:08.178Z,36.48
2023-04-10T09:25:08.144Z,36.49
2023-04-10T09:26:08.137Z,36.45
2023-04-10T09:27:08.132Z,36.30
2023-04-10T09:28:08.112Z,37.63
2023-04-10T09:29:08.136Z,39.19
2023-04-10T09:30:08.095Z,41.71
2023-04-10T09:31:08.125Z,43.26
2023-04-10T09:32:08.076Z,43.37
2023-04-10T09:33:08.089Z,43.98
2023-04-10T09:34:08.054Z,45.12
2023-04-10T09:35:08.042Z,44.76
2023-04-10T09:36:08.049Z,43.28
2023-04-10T09:37:08.020Z,42.43
2023-04-10T09:38:08.010Z,41.25
2023-04-10T09:39:07.994Z,39.98
2023-04-10T09:40:07.994Z,41.23
2023-04-10T09:41:07.984Z,42.07
2023-04-10T09:42:07.962Z,42.72
2023-04-10T09:43:07.959Z,40.97
2023-04-10T09:44:07.945Z,39.59
2023-04-10T09:45:07.973Z,38.25
2023-04-10T09:46:07.956Z,37.35
2023-04-10T09:47:07.907Z,38.50
2023-04-10T09:48:08.032Z,38.89
2023-04-10T09:49:07.890Z,38.76
2023-04-10T09:50:07.878Z,38.92
2023-04-10T09:51:07.861Z,40.22
2023-04-10T09:52:07.851Z,42.93
2023-04-10T09:53:07.845Z,44.08
2023-04-10T09:54:07.831Z,45.18
2023-04-10T09:55:07.875Z,43.98
2023-04-10T09:56:07.810Z,42.15
2023-04-10T09:57:07.813Z,42.35
2023-04-10T09:58:07.789Z,42.32
2023-04-10T09:59:07.780Z,41.65
2023-04-10T10:00:07.763Z,40.30
2023-04-10T10:01:07.888Z,38.96
2023-04-10T10:02:07.840Z,38.84
2023-04-10T10:03:08.014Z,37.81
2023-04-10T10:04:07.749Z,37.90
2023-04-10T10:05:07.898Z,38.19
2023-04-10T10:06:07.712Z,37.64
2023-04-10T10:07:07.705Z,38.70
2023-04-10T10:08:07.688Z,39.84
2023-04-10T10:09:07.673Z,40.26
2023-04-10T10:10:07.723Z,39.91
2023-04-10T10:11:07.647Z,38.86
2023-04-10T10:12:07.640Z,38.44
2023-04-10T10:13:07.628Z,38.56
2023-04-10T10:14:07.639Z,38.66
2023-04-10T10:15:07.656Z,38.34
2023-04-10T10:16:07.691Z,38.66
2023-04-10T10:17:07.622Z,38.87
2023-04-10T10:18:07.652Z,40.80
2023-04-10T10:19:07.561Z,42.88
2023-04-10T10:20:07.552Z,43.06
2023-04-10T10:21:07.543Z,43.00
2023-04-10T10:22:07.533Z,41.65
2023-04-10T10:23:07.530Z,40.42
2023-04-10T10:24:07.541Z,40.22
2023-04-10T10:25:07.503Z,40.70
2023-04-10T10:26:07.498Z,39.72
2023-04-10T10:27:07.482Z,41.05
2023-04-10T10:28:07.474Z,41.47
2023-04-10T10:29:07.477Z,41.69
2023-04-10T10:30:20.247Z,42.10
2023-04-10T10:31:07.478Z,42.32
2023-04-10T10:32:07.427Z,42.44
2023-04-10T10:33:07.439Z,42.21
2023-04-10T10:34:07.463Z,43.18
2023-04-10T10:35:07.394Z,43.48
2023-04-10T10:36:07.394Z,42.74
2023-04-10T10:37:07.379Z,42.66
2023-04-10T10:38:07.362Z,43.90
2023-04-10T10:39:07.354Z,43.24
2023-04-10T10:40:07.359Z,42.76
2023-04-10T10:41:07.330Z,43.40
2023-04-10T10:42:07.323Z,41.13
2023-04-10T10:43:07.320Z,39.57
2023-04-10T10:44:07.320Z,37.93
2023-04-10T10:45:07.309Z,37.10
2023-04-10T10:46:07.372Z,37.01
2023-04-10T10:47:07.271Z,37.54
2023-04-10T10:48:07.307Z,38.11
2023-04-10T10:49:07.271Z,39.45
2023-04-10T10:50:07.258Z,40.24
2023-04-10T10:51:07.233Z,39.43
2023-04-10T10:52:07.220Z,38.75
2023-04-10T10:53:07.208Z,40.20
2023-04-10T10:54:07.195Z,39.88
2023-04-10T10:55:07.181Z,40.77
2023-04-10T10:56:07.179Z,40.34
2023-04-10T10:57:07.195Z,39.23
2023-04-10T10:58:07.160Z,39.64
2023-04-10T10:59:07.153Z,39.55
2023-04-10T11:00:07.139Z,40.40
2023-04-10T11:01:09.844Z,40.88
2023-04-10T11:02:07.233Z,40.02
2023-04-10T11:03:07.263Z,38.92
2023-04-10T11:04:07.189Z,40.64
2023-04-10T11:05:07.104Z,41.79
2023-04-10T11:06:07.069Z,42.82
2023-04-10T11:07:07.065Z,43.12
2023-04-10T11:08:07.048Z,42.68
2023-04-10T11:09:07.033Z,41.93
2023-04-10T11:10:07.023Z,40.58
2023-04-10T11:11:07.047Z,39.60
2023-04-10T11:12:07.010Z,40.97
2023-04-10T11:13:06.995Z,41.81
2023-04-10T11:14:06.981Z,42.01
2023-04-10T11:15:06.990Z,41.99
2023-04-10T11:16:07.021Z,41.41
2023-04-10T11:17:06.970Z,40.00
2023-04-10T11:18:06.937Z,40.93
2023-04-10T11:19:14.973Z,40.61
2023-04-10T11:20:06.919Z,39.84
2023-04-10T11:21:06.936Z,38.22
2023-04-10T11:22:06.895Z,38.18
2023-04-10T11:23:06.897Z,37.77
2023-04-10T11:24:06.884Z,36.83
2023-04-10T11:25:06.898Z,36.00
2023-04-10T11:26:06.852Z,35.38
2023-04-10T11:27:06.838Z,35.18
2023-04-10T11:28:06.830Z,35.94
2023-04-10T11:29:06.821Z,37.49
2023-04-10T11:30:06.825Z,39.41
2023-04-10T11:31:06.797Z,40.93
2023-04-10T11:32:06.856Z,39.77
2023-04-10T11:33:06.844Z,38.70
2023-04-10T11:34:06.765Z,37.99
2023-04-10T11:35:06.751Z,38.54
2023-04-10T11:36:06.743Z,39.33
2023-04-10T11:37:06.774Z,39.37
2023-04-10T11:38:06.717Z,39.56
2023-04-10T11:39:06.710Z,39.23
2023-04-10T11:40:06.742Z,38.58
2023-04-10T11:41:06.691Z,37.42
2023-04-10T11:42:06.683Z,36.30
2023-04-10T11:43:06.673Z,35.59
2023-04-10T11:44:06.652Z,36.71
2023-04-10T11:45:06.641Z,36.23
2023-04-10T11:46:06.732Z,36.45
2023-04-10T11:47:06.642Z,37.97
2023-04-10T11:48:06.684Z,37.85
2023-04-10T11:49:06.616Z,38.17
2023-04-10T11:50:06.588Z,37.67
2023-04-10T11:51:06.581Z,37.99
2023-04-10T11:52:06.567Z,38.28
2023-04-10T11:53:06.577Z,37.77
2023-04-10T11:54:06.546Z,37.69
2023-04-10T11:55:06.535Z,37.97
2023-04-10T11:56:06.527Z,37.47
2023-04-10T11:57:06.514Z,38.26
2023-04-10T11:58:06.506Z,38.07
2023-04-10T11:59:06.490Z,38.18
2023-04-10T12:00:06.489Z,38.17
2023-04-10T12:01:06.471Z,37.35
2023-04-10T12:02:06.513Z,37.03
2023-04-10T12:03:06.584Z,36.30
2023-04-10T12:04:06.553Z,35.47
2023-04-10T12:05:06.458Z,35.16
2023-04-10T12:06:06.420Z,35.18
2023-04-10T12:07:06.416Z,35.49
2023-04-10T12:08:06.393Z,36.41
2023-04-10T12:09:06.407Z,36.32
2023-04-10T12:10:06.377Z,36.22
2023-04-10T12:11:06.357Z,36.10
2023-04-10T12:12:06.355Z,35.80
2023-04-10T12:13:06.718Z,35.51
2023-04-10T12:14:06.329Z,35.41
2023-04-10T12:15:06.321Z,35.21
2023-04-10T12:16:06.322Z,35.11
2023-04-10T12:17:06.301Z,35.35
2023-04-10T12:18:06.283Z,35.74
2023-04-10T12:19:06.276Z,35.84
2023-04-10T12:20:06.260Z,35.23
2023-04-10T12:21:08.185Z,35.13
2023-04-10T12:22:06.250Z,35.94
2023-04-10T12:23:06.238Z,35.54
2023-04-10T12:24:06.224Z,35.30
2023-04-10T12:25:06.232Z,35.74
2023-04-10T12:26:06.205Z,36.44
2023-04-10T12:27:06.186Z,35.96
2023-04-10T12:28:06.177Z,36.49
2023-04-10T12:29:06.167Z,36.77
2023-04-10T12:30:06.158Z,36.84
2023-04-10T12:31:06.204Z,36.21
2023-04-10T12:32:06.138Z,35.91
2023-04-10T12:33:06.145Z,35.79
2023-04-10T12:34:07.042Z,35.40
2023-04-10T12:35:06.107Z,35.48
2023-04-10T12:36:06.156Z,35.30
2023-04-10T12:37:06.083Z,35.40
2023-04-10T12:38:06.074Z,35.79
2023-04-10T12:39:06.066Z,36.10
2023-04-10T12:40:06.065Z,36.34
2023-04-10T12:41:06.077Z,37.07
2023-04-10T12:42:06.042Z,37.98
2023-04-10T12:43:06.023Z,37.68
2023-04-10T12:44:06.019Z,37.45
2023-04-10T12:45:06.000Z,37.29
2023-04-10T12:46:06.023Z,38.18
2023-04-10T12:47:05.981Z,36.85
2023-04-10T12:48:05.998Z,36.92
2023-04-10T12:49:05.963Z,38.92
2023-04-10T12:50:05.946Z,39.12
2023-04-10T12:51:05.940Z,39.02
2023-04-10T12:52:05.924Z,40.14
2023-04-10T12:53:06.441Z,40.11